Time;durP1;ratioP1;P1;durP2;ratioP2;P2;SDS_P1;SDS_P2;PMS_P1;PMS_P2;Temp;Humidity;BMP_temperature;BMP_pressure;BME280_temperature;BME280_humidity;BME280_pressure;Samples;Min_cycle;Max_cycle;Signal;HPM_P1;HPM_P2
2022/12/05 00:00:59;;;;;;;36.93;18.90;;;3.70;99.90;3.40;100549.00;;;;4989334;28;109109;-68
2022/12/05 00:03:25;;;;;;;33.57;17.60;;;3.60;99.90;3.40;100552.00;;;;4980542;28;87229;-68
2022/12/05 00:05:51;;;;;;;27.17;16.90;;;3.60;99.90;3.40;100550.00;;;;4991686;28;87915;-69
2022/12/05 00:08:17;;;;;;;32.10;19.70;;;3.60;99.90;3.40;100554.00;;;;4990996;28;117776;-68
2022/12/05 00:10:43;;;;;;;30.67;17.77;;;4.30;99.90;3.40;100549.00;;;;4991248;28;118152;-69
2022/12/05 00:13:09;;;;;;;32.57;18.53;;;3.60;99.90;3.40;100554.00;;;;4988779;28;94963;-70
2022/12/05 00:15:37;;;;;;;36.80;19.30;;;3.60;99.90;3.40;100547.00;;;;4969966;28;87730;-69
2022/12/05 00:18:04;;;;;;;29.13;18.93;;;3.50;99.90;3.40;100555.00;;;;4983734;27;88053;-69
2022/12/05 00:20:29;;;;;;;26.23;17.80;;;3.60;99.90;3.40;100551.00;;;;4986935;28;105270;-69
2022/12/05 00:22:55;;;;;;;28.90;17.90;;;3.50;99.90;3.40;100559.00;;;;4985863;28;113527;-67
2022/12/05 00:25:21;;;;;;;26.00;16.40;;;3.60;99.90;3.40;100555.00;;;;4986414;28;89055;-68
2022/12/05 00:27:46;;;;;;;33.63;18.23;;;3.60;99.90;3.40;100545.00;;;;4971406;28;115089;-69
2022/12/05 00:30:12;;;;;;;31.97;20.17;;;4.20;99.90;3.40;100560.00;;;;4984496;28;114086;-67
2022/12/05 00:32:38;;;;;;;27.80;18.43;;;3.60;99.90;3.40;100554.00;;;;4985723;28;104436;-69
2022/12/05 00:35:04;;;;;;;30.87;18.67;;;3.60;99.90;3.40;100555.00;;;;4978561;28;98737;-69
2022/12/05 00:37:30;;;;;;;25.30;17.90;;;3.60;99.90;3.40;100551.00;;;;4977318;28;100695;-69
2022/12/05 00:39:55;;;;;;;30.70;18.20;;;3.50;99.90;3.40;100548.00;;;;4988664;27;116092;-69
2022/12/05 00:42:21;;;;;;;29.10;19.93;;;3.60;99.90;3.40;100547.00;;;;4989994;28;113497;-69
2022/12/05 00:44:49;;;;;;;25.60;15.87;;;3.60;99.90;3.40;100555.00;;;;4988402;28;108873;-70
2022/12/05 00:47:15;;;;;;;33.30;18.23;;;3.70;99.90;3.40;100551.00;;;;4984314;28;88367;-69
2022/12/05 00:49:40;;;;;;;25.03;15.77;;;3.70;99.90;3.40;100546.00;;;;4986508;27;88854;-69
2022/12/05 00:52:06;;;;;;;24.67;16.90;;;3.60;99.90;3.40;100550.00;;;;4986689;27;114300;-69
2022/12/05 00:54:32;;;;;;;28.20;17.57;;;3.60;99.90;3.40;100540.00;;;;4973439;28;87998;-68
2022/12/05 00:56:57;;;;;;;27.63;16.87;;;4.20;99.90;3.40;100549.00;;;;4967690;28;117893;-69
2022/12/05 00:59:23;;;;;;;25.10;16.30;;;4.00;99.90;3.50;100540.00;;;;4988163;28;116932;-70
2022/12/05 01:01:50;;;;;;;27.80;17.83;;;3.60;99.90;3.50;100546.00;;;;4987331;28;87662;-69
2022/12/05 01:04:23;;;;;;;36.17;19.00;;;3.70;99.90;3.50;100544.00;;;;4968254;28;87611;-68
2022/12/05 01:06:52;;;;;;;27.27;17.60;;;3.70;99.90;3.50;100558.00;;;;4992074;28;87788;-68
2022/12/05 01:09:20;;;;;;;27.93;16.20;;;3.60;99.90;3.50;100548.00;;;;4989616;28;109353;-70
2022/12/05 01:11:47;;;;;;;29.80;16.77;;;4.70;99.90;3.50;100560.00;;;;4990034;27;87905;-70
2022/12/05 01:14:14;;;;;;;32.00;18.53;;;3.70;99.90;3.50;100562.00;;;;4974649;28;88013;-70
2022/12/05 01:16:43;;;;;;;23.87;16.90;;;4.40;99.90;3.50;100561.00;;;;4983874;28;88263;-68
2022/12/05 01:19:14;;;;;;;36.40;19.13;;;3.70;99.90;3.50;100547.00;;;;4972182;28;87774;-68
2022/12/05 01:21:41;;;;;;;35.33;19.30;;;3.80;99.90;3.50;100555.00;;;;4987473;27;87852;-68
2022/12/05 01:24:08;;;;;;;33.47;19.03;;;3.70;99.90;3.50;100556.00;;;;4986872;27;88702;-68
2022/12/05 01:26:34;;;;;;;29.47;16.67;;;4.10;99.90;3.50;100553.00;;;;4974807;28;108720;-69
2022/12/05 01:28:59;;;;;;;37.40;17.63;;;3.70;99.90;3.50;100550.00;;;;4984329;28;97462;-69
2022/12/05 01:31:30;;;;;;;32.00;18.70;;;3.70;99.90;3.50;100550.00;;;;4974136;28;112658;-68
2022/12/05 01:33:58;;;;;;;35.70;18.80;;;3.70;99.90;3.50;100545.00;;;;4987430;27;87684;-68
2022/12/05 01:36:25;;;;;;;28.57;18.73;;;3.70;99.90;3.50;100539.00;;;;4988547;28;88208;-70
2022/12/05 01:38:52;;;;;;;24.67;17.97;;;3.80;99.90;3.50;100546.00;;;;4972980;28;99485;-68
2022/12/05 01:41:26;;;;;;;35.83;18.57;;;4.50;99.90;3.60;100545.00;;;;4988385;28;112557;-68
2022/12/05 01:43:53;;;;;;;24.60;14.83;;;3.80;99.90;3.60;100549.00;;;;4987080;27;89804;-68
2022/12/05 01:46:19;;;;;;;33.77;19.17;;;3.80;99.90;3.60;100558.00;;;;4987115;28;101884;-69
2022/12/05 01:48:44;;;;;;;36.20;18.57;;;3.80;99.90;3.60;100548.00;;;;4986722;27;117192;-69
2022/12/05 01:51:11;;;;;;;22.03;17.03;;;3.80;99.90;3.60;100552.00;;;;4986573;28;96214;-69
2022/12/05 01:53:37;;;;;;;30.43;17.00;;;4.30;99.90;3.60;100548.00;;;;4960625;28;109320;-70
2022/12/05 01:56:03;;;;;;;31.10;19.27;;;3.70;99.90;3.60;100549.00;;;;4989995;28;118308;-69
2022/12/05 01:58:35;;;;;;;28.80;17.67;;;3.80;99.90;3.60;100551.00;;;;4984710;28;90239;-69
2022/12/05 02:01:01;;;;;;;31.43;18.50;;;3.70;99.90;3.60;100549.00;;;;4975701;28;93262;-69
2022/12/05 02:03:27;;;;;;;27.60;16.40;;;3.80;99.90;3.60;100547.00;;;;4986180;27;108209;-71
2022/12/05 02:05:56;;;;;;;28.10;18.77;;;4.70;99.90;3.60;100546.00;;;;4989585;28;116896;-70
2022/12/05 02:08:22;;;;;;;37.13;17.93;;;4.70;99.90;3.60;100554.00;;;;4990063;28;115052;-70
2022/12/05 02:10:51;;;;;;;31.77;18.03;;;3.80;99.90;3.60;100549.00;;;;4990832;27;103919;-70
2022/12/05 02:13:36;;;;;;;31.87;16.93;;;3.80;99.90;3.60;100546.00;;;;4995971;28;88671;-70
2022/12/05 02:16:25;;;;;;;30.60;18.13;;;4.30;99.90;3.60;100559.00;;;;4978396;28;108002;-72
2022/12/05 02:19:37;;;;;;;31.10;17.23;;;3.80;99.90;3.60;100557.00;;;;4989130;28;87962;-71
2022/12/05 02:22:28;;;;;;;40.87;18.30;;;3.90;99.90;3.60;100556.00;;;;4987966;27;87962;-69
2022/12/05 02:25:22;;;;;;;34.90;18.50;;;3.90;99.90;3.60;100548.00;;;;4978287;28;99944;-70
2022/12/05 02:28:39;;;;;;;34.00;17.73;;;3.80;99.90;3.60;100555.00;;;;4990253;28;87729;-69
2022/12/05 02:31:16;;;;;;;38.27;20.23;;;3.80;99.90;3.60;100553.00;;;;4987464;27;87681;-70
2022/12/05 02:33:49;;;;;;;29.57;18.17;;;3.80;99.90;3.70;100558.00;;;;4972165;27;87514;-71
2022/12/05 02:36:32;;;;;;;30.27;16.60;;;3.80;99.90;3.70;100552.00;;;;4978605;28;87817;-68
2022/12/05 02:39:21;;;;;;;37.37;19.77;;;4.60;99.90;3.70;100556.00;;;;4991688;28;88501;-68
2022/12/05 02:41:59;;;;;;;37.40;18.87;;;3.90;99.90;3.70;100551.00;;;;4975274;27;89052;-69
2022/12/05 02:44:38;;;;;;;29.33;15.93;;;3.90;99.90;3.70;100553.00;;;;4976570;28;102964;-70
2022/12/05 02:47:07;;;;;;;34.93;19.77;;;3.90;99.90;3.70;100549.00;;;;4980612;28;93281;-69
2022/12/05 02:49:35;;;;;;;28.37;16.93;;;3.90;99.90;3.70;100552.00;;;;4966607;28;118638;-69
2022/12/05 02:52:07;;;;;;;35.10;19.73;;;3.80;99.90;3.70;100548.00;;;;4987126;28;104507;-69
2022/12/05 02:54:37;;;;;;;27.40;18.40;;;4.00;99.90;3.70;100541.00;;;;4978743;28;94449;-69
2022/12/05 02:57:04;;;;;;;30.53;19.17;;;3.90;99.90;3.70;100553.00;;;;4978996;27;90356;-69
2022/12/05 02:59:30;;;;;;;36.10;20.90;;;3.90;99.90;3.70;100552.00;;;;4986727;27;91004;-68
2022/12/05 03:01:56;;;;;;;36.90;18.57;;;3.90;99.90;3.80;100557.00;;;;4973909;28;115929;-70
2022/12/05 03:04:24;;;;;;;32.20;19.07;;;3.90;99.90;3.80;100557.00;;;;4989946;28;111831;-68
2022/12/05 03:07:00;;;;;;;35.17;17.93;;;4.80;99.90;3.70;100553.00;;;;4976454;28;89010;-70
2022/12/05 03:09:38;;;;;;;31.03;19.27;;;4.00;99.90;3.80;100552.00;;;;4968909;28;88533;-68
2022/12/05 03:12:25;;;;;;;29.13;19.87;;;3.90;99.90;3.80;100554.00;;;;4990580;27;87830;-68
2022/12/05 03:14:57;;;;;;;33.10;19.50;;;4.00;99.90;3.80;100545.00;;;;4975705;28;88030;-68
2022/12/05 03:17:29;;;;;;;30.40;19.43;;;4.00;99.90;3.80;100536.00;;;;4973397;28;87847;-67
2022/12/05 03:20:17;;;;;;;35.67;19.50;;;3.90;99.90;3.80;100551.00;;;;4971508;28;110246;-68
2022/12/05 03:22:55;;;;;;;30.07;19.70;;;4.00;99.90;3.80;100546.00;;;;4975927;28;88229;-67
2022/12/05 03:25:48;;;;;;;33.63;21.40;;;4.00;99.90;3.80;100543.00;;;;4988716;28;106602;-67
2022/12/05 03:28:35;;;;;;;41.67;20.90;;;3.90;99.90;3.70;100552.00;;;;4988816;28;87766;-68
2022/12/05 03:31:08;;;;;;;34.50;19.13;;;4.00;99.90;3.80;100539.00;;;;4985032;28;88012;-68
2022/12/05 03:33:44;;;;;;;28.97;17.40;;;4.00;99.90;3.80;100538.00;;;;4976484;28;89742;-69
2022/12/05 03:36:37;;;;;;;32.87;20.30;;;4.00;99.90;3.80;100544.00;;;;4991800;28;88925;-68
2022/12/05 03:39:13;;;;;;;35.83;21.20;;;4.00;99.90;3.80;100547.00;;;;4973202;28;97214;-68
2022/12/05 03:41:55;;;;;;;26.20;18.63;;;4.00;99.90;3.80;100549.00;;;;4981715;27;107850;-69
2022/12/05 03:44:41;;;;;;;40.43;21.77;;;4.10;99.90;3.80;100541.00;;;;4978385;28;88184;-69
2022/12/05 03:47:38;;;;;;;31.00;18.50;;;4.00;99.90;3.80;100544.00;;;;4986208;27;102286;-68
2022/12/05 03:50:34;;;;;;;33.40;19.37;;;4.00;99.90;3.80;100547.00;;;;4962736;28;87615;-67
2022/12/05 03:53:07;;;;;;;36.37;20.70;;;4.00;99.90;3.80;100543.00;;;;4976459;27;116139;-67
2022/12/05 03:55:37;;;;;;;28.27;18.80;;;4.00;99.90;3.80;100547.00;;;;4992021;27;88280;-69
2022/12/05 03:58:22;;;;;;;30.83;19.13;;;4.60;99.90;3.80;100545.00;;;;4975807;28;87801;-68
2022/12/05 04:00:52;;;;;;;34.40;22.13;;;3.60;99.90;3.80;100549.00;;;;4974025;28;88850;-68
2022/12/05 04:03:39;;;;;;;38.50;19.70;;;4.20;99.90;3.80;100549.00;;;;4987255;27;87909;-69
2022/12/05 04:06:24;;;;;;;24.97;18.63;;;4.10;99.90;3.80;100557.00;;;;4971252;28;87781;-70
2022/12/05 04:08:56;;;;;;;27.57;17.93;;;4.10;99.90;3.90;100562.00;;;;4990778;28;100534;-68
2022/12/05 04:11:26;;;;;;;40.40;19.60;;;4.10;99.90;3.90;100563.00;;;;4975644;28;87810;-68
2022/12/05 04:13:59;;;;;;;31.53;20.90;;;4.50;99.90;3.90;100556.00;;;;4974985;28;105486;-68
2022/12/05 04:19:25;;;;;;;29.67;19.53;;;3.90;99.90;3.90;100553.00;;;;4981852;27;87448;-69
2022/12/05 04:21:55;;;;;;;32.30;19.40;;;4.10;99.90;3.90;100556.00;;;;4976965;28;98294;-68
2022/12/05 04:27:37;;;;;;;26.23;15.53;;;4.00;99.90;3.90;100555.00;;;;4990459;28;88891;-68
2022/12/05 04:30:19;;;;;;;25.87;17.03;;;4.10;99.90;3.90;100560.00;;;;4991875;28;87755;-70
2022/12/05 04:33:29;;;;;;;29.00;16.57;;;4.10;99.90;3.90;100552.00;;;;4978519;28;97842;-70
2022/12/05 04:36:09;;;;;;;25.33;17.07;;;4.10;99.90;3.90;100556.00;;;;4990348;27;109139;-68
2022/12/05 04:38:58;;;;;;;29.10;15.93;;;4.10;99.90;3.90;100557.00;;;;4976900;28;89417;-70
2022/12/05 04:41:32;;;;;;;27.87;19.27;;;4.20;99.90;3.90;100553.00;;;;4975459;28;104915;-70
2022/12/05 04:44:06;;;;;;;32.30;18.43;;;4.10;99.90;3.90;100562.00;;;;4984331;28;99933;-68
2022/12/05 04:46:34;;;;;;;29.60;16.17;;;4.10;99.90;3.90;100552.00;;;;4975763;28;88463;-68
2022/12/05 04:49:05;;;;;;;33.57;19.30;;;4.10;99.90;3.90;100562.00;;;;4989093;27;106132;-69
2022/12/05 04:51:34;;;;;;;30.87;16.33;;;4.10;99.90;3.90;100562.00;;;;4991324;28;87892;-70
2022/12/05 04:54:10;;;;;;;23.40;15.73;;;4.10;99.90;3.90;100573.00;;;;4987830;28;101109;-70
2022/12/05 04:56:37;;;;;;;31.27;18.33;;;4.10;99.90;3.90;100564.00;;;;4976599;28;109884;-69
2022/12/05 04:59:04;;;;;;;22.97;15.57;;;4.20;99.90;3.90;100564.00;;;;4974868;28;116942;-70
2022/12/05 05:01:47;;;;;;;30.43;17.97;;;4.40;99.90;3.90;100557.00;;;;4975557;28;111734;-69
2022/12/05 05:04:25;;;;;;;28.13;16.00;;;4.10;99.90;3.90;100568.00;;;;4989654;28;87824;-69
2022/12/05 05:06:51;;;;;;;27.27;14.90;;;4.20;99.90;4.00;100572.00;;;;4986762;28;110663;-68
2022/12/05 05:09:17;;;;;;;25.20;16.47;;;4.60;99.90;4.00;100579.00;;;;4971215;28;116202;-69
2022/12/05 05:11:42;;;;;;;25.93;16.47;;;4.20;99.90;4.00;100571.00;;;;4991266;28;114054;-70
2022/12/05 05:14:08;;;;;;;29.07;15.93;;;4.70;99.90;4.00;100571.00;;;;4989442;28;107288;-68
2022/12/05 05:16:38;;;;;;;31.43;15.50;;;4.20;99.90;4.00;100577.00;;;;4991317;28;115951;-68
2022/12/05 05:19:05;;;;;;;23.53;15.80;;;4.10;99.90;4.00;100567.00;;;;4983362;27;88903;-68
2022/12/05 05:21:41;;;;;;;35.87;16.63;;;4.30;99.90;3.90;100566.00;;;;4988646;28;93683;-69
2022/12/05 05:24:10;;;;;;;23.93;15.43;;;4.20;99.90;4.00;100577.00;;;;4983293;27;87791;-68
2022/12/05 05:26:39;;;;;;;27.23;15.97;;;4.10;99.90;4.00;100573.00;;;;4989015;27;88713;-68
2022/12/05 05:29:05;;;;;;;31.87;18.03;;;4.20;99.90;4.00;100577.00;;;;4989623;28;111829;-68
2022/12/05 05:31:32;;;;;;;20.73;14.90;;;4.10;99.90;4.00;100570.00;;;;4989290;28;87702;-69
2022/12/05 05:33:58;;;;;;;32.50;17.77;;;4.10;99.90;4.00;100570.00;;;;4988590;28;87696;-69
2022/12/05 05:36:26;;;;;;;27.67;17.40;;;4.90;99.90;4.00;100569.00;;;;4986371;28;98630;-68
2022/12/05 05:38:55;;;;;;;28.90;15.87;;;4.10;99.90;3.90;100566.00;;;;4989220;28;102978;-67
2022/12/05 05:41:28;;;;;;;31.43;15.13;;;4.20;99.90;3.90;100574.00;;;;4985016;28;97098;-68
2022/12/05 05:43:55;;;;;;;25.53;16.53;;;4.20;99.90;4.00;100579.00;;;;4985724;28;88942;-68
2022/12/05 05:46:25;;;;;;;27.27;14.43;;;4.10;99.90;4.00;100575.00;;;;4972996;28;88958;-68
2022/12/05 05:48:51;;;;;;;26.00;13.60;;;4.10;99.90;4.00;100573.00;;;;4980016;28;88701;-68
2022/12/05 05:51:19;;;;;;;22.93;16.00;;;4.10;99.90;4.00;100577.00;;;;4982919;28;112464;-68
2022/12/05 05:53:45;;;;;;;29.57;16.67;;;4.10;99.90;4.00;100577.00;;;;4990628;27;87988;-69
2022/12/05 05:56:14;;;;;;;33.23;15.30;;;4.10;99.90;4.00;100588.00;;;;4988723;27;117929;-69
2022/12/05 05:58:40;;;;;;;16.70;13.77;;;4.20;99.90;4.00;100589.00;;;;4990065;27;106278;-69
2022/12/05 06:01:14;;;;;;;30.73;13.03;;;4.80;99.90;4.00;100586.00;;;;4990099;27;113379;-68
2022/12/05 06:03:40;;;;;;;21.30;14.03;;;4.90;99.90;4.00;100586.00;;;;4987585;27;87762;-69
2022/12/05 06:06:10;;;;;;;32.57;17.73;;;4.20;99.90;4.00;100581.00;;;;4987097;27;103537;-69
2022/12/05 06:08:39;;;;;;;29.70;15.77;;;4.10;99.90;4.00;100593.00;;;;4985945;27;102859;-69
2022/12/05 06:11:17;;;;;;;22.97;14.63;;;4.20;99.90;4.00;100594.00;;;;4985971;27;87823;-70
2022/12/05 06:13:43;;;;;;;26.37;16.40;;;4.30;99.90;4.10;100596.00;;;;4988256;27;88254;-68
2022/12/05 06:16:12;;;;;;;26.50;13.67;;;4.20;99.90;4.10;100601.00;;;;4985271;27;88223;-69
2022/12/05 06:18:38;;;;;;;26.03;15.77;;;4.30;99.90;4.10;100598.00;;;;4989766;27;88189;-67
2022/12/05 06:21:07;;;;;;;36.63;16.47;;;4.20;99.90;4.10;100599.00;;;;4985091;27;91882;-68
2022/12/05 06:23:34;;;;;;;28.97;16.73;;;4.30;99.90;4.10;100603.00;;;;4967245;27;87991;-68
2022/12/05 06:26:01;;;;;;;27.00;16.53;;;4.30;99.90;4.10;100607.00;;;;4984336;27;88631;-68
2022/12/05 06:28:27;;;;;;;29.17;15.30;;;4.30;99.90;4.10;100609.00;;;;4987800;27;106166;-68
2022/12/05 06:30:53;;;;;;;24.67;14.30;;;4.40;99.90;4.10;100609.00;;;;4974171;27;105501;-69
2022/12/05 06:33:19;;;;;;;26.87;15.23;;;4.30;99.90;4.10;100610.00;;;;4972654;28;107333;-68
2022/12/05 06:35:45;;;;;;;19.23;14.70;;;4.90;99.90;4.10;100604.00;;;;4976760;27;88914;-69
2022/12/05 06:38:11;;;;;;;27.07;14.57;;;4.30;99.90;4.10;100612.00;;;;4972023;27;88620;-69
2022/12/05 06:40:44;;;;;;;23.67;14.33;;;4.40;99.90;4.10;100608.00;;;;4966158;28;103265;-68
2022/12/05 06:43:10;;;;;;;28.37;15.77;;;4.30;99.90;4.20;100610.00;;;;4958576;28;88267;-68
2022/12/05 06:45:39;;;;;;;26.93;14.27;;;4.30;99.90;4.10;100616.00;;;;4986905;27;89077;-69
2022/12/05 06:48:06;;;;;;;26.90;16.87;;;4.40;99.90;4.20;100626.00;;;;4976677;27;117454;-68
2022/12/05 06:50:32;;;;;;;20.73;15.20;;;4.30;99.90;4.20;100622.00;;;;4980496;27;94249;-68
2022/12/05 06:52:57;;;;;;;22.23;15.77;;;5.10;99.90;4.20;100631.00;;;;4988161;27;88017;-69
2022/12/05 06:55:23;;;;;;;25.60;16.33;;;5.30;99.90;4.20;100628.00;;;;4981517;27;116156;-68
2022/12/05 06:57:48;;;;;;;22.20;13.03;;;4.50;99.90;4.20;100638.00;;;;4987771;27;118849;-68
2022/12/05 07:02:59;;;;;;;25.83;14.47;;;4.40;99.90;4.20;100633.00;;;;4989086;27;87943;-69
2022/12/05 07:05:25;;;;;;;25.97;13.93;;;4.40;99.90;4.20;100642.00;;;;4983978;27;116550;-69
2022/12/05 07:07:50;;;;;;;24.20;14.13;;;4.40;99.90;4.20;100647.00;;;;4988711;27;87946;-69
2022/12/05 07:10:16;;;;;;;25.47;16.13;;;4.40;99.90;4.20;100646.00;;;;4988062;27;87932;-68
2022/12/05 07:12:42;;;;;;;25.90;14.73;;;4.40;99.90;4.20;100647.00;;;;4979582;27;103899;-68
2022/12/05 07:15:08;;;;;;;26.37;14.53;;;4.40;99.90;4.20;100642.00;;;;4987641;27;116104;-68
2022/12/05 07:17:37;;;;;;;23.83;14.83;;;4.30;99.90;4.20;100636.00;;;;4988143;27;106623;-68
2022/12/05 07:20:05;;;;;;;31.87;14.00;;;4.50;99.90;4.20;100641.00;;;;4981032;28;87802;-68
2022/12/05 07:22:33;;;;;;;28.77;16.80;;;4.40;99.90;4.20;100643.00;;;;4992792;27;89134;-68
2022/12/05 07:24:59;;;;;;;25.07;14.37;;;4.40;99.90;4.20;100638.00;;;;4974670;27;102407;-68
2022/12/05 07:27:24;;;;;;;18.37;14.00;;;4.40;99.90;4.20;100647.00;;;;4991133;27;115758;-68
2022/12/05 07:29:50;;;;;;;23.83;14.03;;;5.10;99.90;4.20;100642.00;;;;4995554;27;87747;-68
2022/12/05 07:32:16;;;;;;;21.87;14.17;;;4.40;99.90;4.30;100637.00;;;;4991190;27;108243;-68
2022/12/05 07:34:41;;;;;;;18.40;13.00;;;4.50;99.90;4.30;100640.00;;;;4990790;27;117569;-68
2022/12/05 07:37:07;;;;;;;21.47;14.07;;;4.40;99.90;4.30;100644.00;;;;4991551;27;118472;-67
2022/12/05 07:39:33;;;;;;;24.60;15.00;;;4.50;99.90;4.30;100651.00;;;;4992012;27;87171;-67
2022/12/05 07:41:58;;;;;;;28.27;15.07;;;4.60;99.90;4.30;100640.00;;;;4990239;27;108320;-67
2022/12/05 07:44:24;;;;;;;21.30;14.10;;;4.50;99.90;4.40;100652.00;;;;4988955;27;112975;-67
2022/12/05 07:46:50;;;;;;;26.13;13.67;;;4.50;99.90;4.40;100653.00;;;;4986429;27;117896;-67
2022/12/05 07:49:15;;;;;;;19.33;12.40;;;4.40;99.90;4.40;100647.00;;;;4983844;27;113456;-67
2022/12/05 07:51:41;;;;;;;19.07;13.20;;;4.60;99.90;4.40;100650.00;;;;4989382;27;88613;-66
2022/12/05 07:54:07;;;;;;;19.70;13.93;;;4.50;99.90;4.40;100650.00;;;;4980190;27;89007;-69
2022/12/05 07:56:32;;;;;;;25.00;13.53;;;5.20;99.90;4.40;100638.00;;;;4973885;28;88157;-68
2022/12/05 07:58:58;;;;;;;23.60;14.00;;;4.60;99.90;4.40;100647.00;;;;4979357;27;112437;-68
2022/12/05 08:01:28;;;;;;;26.50;15.00;;;4.60;99.90;4.40;100646.00;;;;4993242;27;87677;-68
2022/12/05 08:03:57;;;;;;;21.07;13.60;;;4.70;99.90;4.50;100654.00;;;;4991736;27;99422;-68
2022/12/05 08:06:29;;;;;;;18.47;13.13;;;4.60;99.90;4.50;100652.00;;;;4969898;27;107685;-67
2022/12/05 08:08:56;;;;;;;24.77;15.07;;;4.70;99.90;4.50;100648.00;;;;4988916;27;89418;-67
2022/12/05 08:11:33;;;;;;;23.30;15.73;;;4.60;99.90;4.50;100648.00;;;;4972447;28;93239;-67
2022/12/05 08:13:59;;;;;;;23.47;14.13;;;4.70;99.90;4.50;100643.00;;;;4989087;27;87883;-67
2022/12/05 08:16:28;;;;;;;27.33;15.20;;;4.70;99.90;4.50;100658.00;;;;4988321;27;117436;-68
2022/12/05 08:19:03;;;;;;;17.40;11.97;;;4.70;99.90;4.50;100654.00;;;;4987917;27;89311;-67
2022/12/05 08:21:29;;;;;;;21.70;14.07;;;4.70;99.90;4.50;100649.00;;;;4984929;27;93843;-68
2022/12/05 08:23:55;;;;;;;19.90;12.77;;;4.70;99.90;4.60;100658.00;;;;4988155;27;88497;-68
2022/12/05 08:26:26;;;;;;;29.43;14.33;;;4.70;99.90;4.60;100658.00;;;;4988308;27;88759;-68
2022/12/05 08:28:59;;;;;;;24.00;13.70;;;4.70;99.90;4.60;100663.00;;;;4988197;27;103967;-67
2022/12/05 08:31:28;;;;;;;23.90;13.40;;;4.70;99.90;4.60;100657.00;;;;4993654;27;87910;-67
2022/12/05 08:33:57;;;;;;;28.00;15.37;;;4.70;99.90;4.60;100668.00;;;;4988949;27;109203;-67
2022/12/05 08:36:24;;;;;;;24.30;14.27;;;4.70;99.90;4.60;100666.00;;;;4968954;28;109010;-67
2022/12/05 08:39:00;;;;;;;19.37;14.00;;;4.80;99.90;4.70;100669.00;;;;4985803;27;105819;-67
2022/12/05 08:41:28;;;;;;;19.87;12.97;;;4.80;99.90;4.70;100671.00;;;;4973829;27;87866;-67
2022/12/05 08:43:56;;;;;;;19.50;13.07;;;4.80;99.90;4.70;100666.00;;;;4986769;27;88889;-67
2022/12/05 08:46:22;;;;;;;26.47;15.00;;;5.20;99.90;4.80;100666.00;;;;4983694;27;87858;-66
2022/12/05 08:48:47;;;;;;;20.33;15.67;;;4.80;99.90;4.80;100672.00;;;;4987831;27;88764;-67
2022/12/05 08:51:13;;;;;;;19.97;13.13;;;5.00;99.90;4.80;100671.00;;;;4980929;27;108549;-67
2022/12/05 08:53:39;;;;;;;21.07;12.77;;;5.00;99.90;4.80;100682.00;;;;4973416;28;116309;-67
2022/12/05 08:56:07;;;;;;;25.00;16.20;;;5.70;99.90;4.80;100677.00;;;;4974907;27;102344;-67
2022/12/05 08:58:34;;;;;;;19.03;12.97;;;5.00;99.90;4.90;100674.00;;;;4966095;28;91007;-67
2022/12/05 09:01:16;;;;;;;19.57;14.10;;;5.70;99.90;4.90;100676.00;;;;4956508;28;88738;-67
2022/12/05 09:03:43;;;;;;;18.77;12.10;;;5.00;99.90;4.90;100685.00;;;;4971899;28;88129;-67
2022/12/05 09:06:13;;;;;;;19.60;13.77;;;5.10;99.90;4.90;100682.00;;;;4967777;28;117461;-67
2022/12/05 09:08:40;;;;;;;19.27;12.80;;;5.10;99.90;4.90;100689.00;;;;4970815;28;87890;-67
2022/12/05 09:11:11;;;;;;;29.73;16.10;;;5.40;99.90;5.00;100682.00;;;;4974221;28;87928;-67
2022/12/05 09:13:38;;;;;;;27.47;16.07;;;5.10;99.90;5.00;100684.00;;;;4980054;27;88258;-67
2022/12/05 09:16:10;;;;;;;21.27;12.70;;;5.20;99.90;5.10;100690.00;;;;4971164;28;88641;-67
2022/12/05 09:18:36;;;;;;;19.27;12.60;;;5.20;99.90;5.10;100698.00;;;;4971646;28;87209;-68
2022/12/05 09:21:15;;;;;;;25.83;12.77;;;6.00;99.90;5.10;100696.00;;;;4970174;28;96852;-67
2022/12/05 09:23:41;;;;;;;20.40;12.57;;;5.80;99.90;5.10;100692.00;;;;4966606;28;88274;-67
2022/12/05 09:26:11;;;;;;;24.23;13.87;;;5.20;99.90;5.10;100689.00;;;;4970900;28;88990;-67
2022/12/05 09:28:37;;;;;;;19.33;11.70;;;5.20;99.90;5.10;100697.00;;;;4969836;28;104525;-67
2022/12/05 09:31:07;;;;;;;27.60;15.37;;;5.80;99.90;5.10;100692.00;;;;4976450;27;87866;-67
2022/12/05 09:33:35;;;;;;;27.07;13.57;;;5.30;99.90;5.10;100691.00;;;;4990040;27;88304;-67
2022/12/05 09:36:08;;;;;;;21.27;13.50;;;5.20;99.90;5.10;100685.00;;;;4988907;27;88504;-67
2022/12/05 09:38:34;;;;;;;27.50;15.03;;;5.30;99.90;5.10;100689.00;;;;4969834;28;103912;-67
2022/12/05 09:42:09;;;;;;;38.07;26.23;;;6.00;99.90;5.00;100683.00;;;;4987361;27;107130;-67
2022/12/05 09:44:37;;;;;;;20.03;12.97;;;5.20;99.90;5.10;100688.00;;;;4968669;27;89579;-67
2022/12/05 09:47:35;;;;;;;26.27;14.47;;;5.20;99.90;5.10;100687.00;;;;4988031;27;87962;-67
2022/12/05 09:50:46;;;;;;;27.03;16.50;;;5.20;99.90;5.00;100693.00;;;;4972672;27;87787;-67
2022/12/05 09:53:29;;;;;;;18.80;14.50;;;5.20;99.90;5.10;100689.00;;;;4963345;27;90053;-67
2022/12/05 09:56:24;;;;;;;25.70;15.47;;;5.30;99.90;5.10;100703.00;;;;4988492;27;88501;-67
2022/12/05 09:58:53;;;;;;;29.67;17.67;;;5.80;99.90;5.20;100694.00;;;;4972651;28;87999;-67
2022/12/05 10:01:35;;;;;;;34.93;16.53;;;5.50;99.90;5.20;100699.00;;;;4991423;27;101436;-67
2022/12/05 10:04:39;;;;;;;27.07;13.87;;;6.10;99.90;5.20;100704.00;;;;4969405;27;88033;-67
2022/12/05 10:07:30;;;;;;;27.97;15.07;;;5.30;99.90;5.20;100709.00;;;;4985183;27;106622;-67
2022/12/05 10:10:20;;;;;;;20.77;14.07;;;5.40;99.90;5.30;100693.00;;;;4984406;27;87770;-66
2022/12/05 10:13:17;;;;;;;23.77;13.20;;;5.80;99.90;5.30;100697.00;;;;4983894;27;87022;-66
2022/12/05 10:15:47;;;;;;;22.73;15.27;;;5.50;99.90;5.30;100699.00;;;;4986548;27;99881;-66
2022/12/05 10:18:44;;;;;;;19.63;11.47;;;5.70;99.90;5.30;100689.00;;;;4974761;28;87906;-66
2022/12/05 10:21:32;;;;;;;147.07;114.23;;;5.50;99.90;5.30;100691.00;;;;4973058;27;88948;-66
2022/12/05 10:24:14;;;;;;;28.13;20.90;;;5.50;99.90;5.40;100700.00;;;;4991219;27;87738;-66
2022/12/05 10:26:47;;;;;;;28.23;18.67;;;5.50;99.90;5.40;100697.00;;;;4986728;27;98674;-66
2022/12/05 10:30:13;;;;;;;26.83;14.30;;;6.30;99.90;5.40;100708.00;;;;4972885;27;89217;-66
2022/12/05 10:32:58;;;;;;;25.23;14.37;;;5.60;99.90;5.40;100704.00;;;;4965195;27;88725;-66
2022/12/05 10:35:31;;;;;;;19.83;12.43;;;5.60;99.90;5.50;100700.00;;;;4992289;27;87701;-66
2022/12/05 10:38:02;;;;;;;21.37;12.57;;;5.60;99.90;5.50;100694.00;;;;4988979;27;102160;-66
2022/12/05 10:40:41;;;;;;;90.53;59.63;;;5.60;99.90;5.50;100696.00;;;;4989497;27;107417;-67
2022/12/05 10:43:12;;;;;;;27.30;15.97;;;5.80;99.90;5.50;100696.00;;;;4973402;28;108601;-66
2022/12/05 10:45:45;;;;;;;26.87;15.20;;;5.80;99.90;5.60;100695.00;;;;4992307;27;87751;-66
2022/12/05 10:48:13;;;;;;;23.70;13.73;;;6.00;99.90;5.60;100698.00;;;;4988366;27;91145;-66
2022/12/05 10:50:41;;;;;;;25.83;21.10;;;5.70;99.90;5.60;100701.00;;;;4991638;27;97968;-67
2022/12/05 10:53:07;;;;;;;21.93;13.87;;;5.90;99.90;5.60;100692.00;;;;4990486;27;87972;-66
2022/12/05 10:55:46;;;;;;;24.80;16.20;;;5.70;99.90;5.60;100698.00;;;;4968232;28;102403;-66
2022/12/05 10:58:13;;;;;;;26.20;15.33;;;6.50;99.90;5.60;100704.00;;;;4970963;27;88010;-67
2022/12/05 11:00:45;;;;;;;26.30;14.40;;;5.80;99.90;5.60;100710.00;;;;4992306;27;88804;-66
2022/12/05 11:03:29;;;;;;;22.00;13.10;;;5.80;99.90;5.60;100703.00;;;;4989992;27;88005;-67
2022/12/05 11:05:59;;;;;;;24.83;13.97;;;5.80;99.90;5.60;100699.00;;;;4978048;28;88316;-66
2022/12/05 11:08:31;;;;;;;20.73;13.80;;;5.80;99.90;5.70;100712.00;;;;4989337;27;87674;-66
2022/12/05 11:11:07;;;;;;;24.70;14.93;;;6.20;99.90;5.70;100701.00;;;;4988347;27;103124;-66
2022/12/05 11:13:34;;;;;;;22.97;13.30;;;5.90;99.90;5.70;100692.00;;;;4972841;27;100779;-66
2022/12/05 11:16:00;;;;;;;25.37;13.07;;;5.80;99.90;5.70;100701.00;;;;4991615;27;87858;-66